KCGF

Cuyahoga County Airport

Cleveland, Ohio, USA
METAR KCGF 240145Z 00000KT 10SM FEW200 17/13 A3018
Observed Flight Rules
May-24 @ 01:45 UTC (16 minutes ago) Visual Flight Rules
Visibility Clouds
10 miles
  • Few at 20,000' AGL
Temperatures Readings
Current 17°C / 63°F
Dewpoint 13°C / 55°F
Humidity 77%
Altimeter 30.18" Hg
Pressure 1022 hPa
Elevation 268
METAR KCGF 240145Z 00000KT 10SM FEW200 17/13 A3018
Observed Flight Rules
May-24 @ 01:45 UTC
(16 minutes ago)
VFR
Clouds
  • Few at 20,000' AGL
Temperature Dewpoint
17°C / 63°F 13°C / 55°F
Humidity Altimeter Pressure
77% 30.18" Hg 1022 hPa